Terminal Aerodrome Forecast
Issued by NWS Wichita, KS

Home | Current Version | Previous Version | Graphics & Text | Print | Product List | Glossary On
Versions: 1 2 3 4 5 6 7 8 9 10 11 12 13 14
000
FTUS43 KICT 302324
TAFICT
TAF
KICT 302324Z 3100/3124 13004KT P6SM FEW040
     FM310800 13004KT 4SM BR SCT010
      TEMPO 3110/3114 2SM BR
     FM311500 16010KT P6SM FEW035=

USA.gov is the U.S. government's official web portal to all federal, state and local government web resources and services.